sensor_id;sensor_type;location;lat;lon;timestamp;pressure;altitude;pressure_sealevel;temperature;humidity
46534;BME280;32260;52.008;4.752;2023-02-16T00:01:21;102462.63;;;7.49;66.57
46534;BME280;32260;52.008;4.752;2023-02-16T00:03:48;102458.19;;;7.46;66.45
46534;BME280;32260;52.008;4.752;2023-02-16T00:06:14;102451.06;;;7.40;66.80
46534;BME280;32260;52.008;4.752;2023-02-16T00:08:47;102454.59;;;7.42;67.66
46534;BME280;32260;52.008;4.752;2023-02-16T00:11:17;102446.63;;;7.38;67.45
46534;BME280;32260;52.008;4.752;2023-02-16T00:14:06;102442.19;;;7.35;67.42
46534;BME280;32260;52.008;4.752;2023-02-16T00:16:32;102450.94;;;7.34;66.90
46534;BME280;32260;52.008;4.752;2023-02-16T00:18:59;102441.19;;;7.30;66.62
46534;BME280;32260;52.008;4.752;2023-02-16T00:21:25;102446.41;;;7.27;66.76
46534;BME280;32260;52.008;4.752;2023-02-16T00:23:52;102450.75;;;7.25;67.44
46534;BME280;32260;52.008;4.752;2023-02-16T00:26:23;102450.81;;;7.26;67.34
46534;BME280;32260;52.008;4.752;2023-02-16T00:28:54;102450.75;;;7.25;67.38
46534;BME280;32260;52.008;4.752;2023-02-16T00:31:24;102441.88;;;7.20;67.21
46534;BME280;32260;52.008;4.752;2023-02-16T00:33:53;102440.09;;;7.19;67.33
46534;BME280;32260;52.008;4.752;2023-02-16T00:36:20;102438.31;;;7.18;67.31
46534;BME280;32260;52.008;4.752;2023-02-16T00:38:46;102440.00;;;7.14;67.47
46534;BME280;32260;52.008;4.752;2023-02-16T00:41:17;102440.03;;;7.16;66.86
46534;BME280;32260;52.008;4.752;2023-02-16T00:44:11;102443.56;;;7.16;67.34
46534;BME280;32260;52.008;4.752;2023-02-16T00:46:39;102438.31;;;7.18;67.65
46534;BME280;32260;52.008;4.752;2023-02-16T00:49:07;102432.97;;;7.15;67.69
46534;BME280;32260;52.008;4.752;2023-02-16T00:51:34;102437.41;;;7.16;67.04
46534;BME280;32260;52.008;4.752;2023-02-16T00:54:01;102438.25;;;7.15;68.02
46534;BME280;32260;52.008;4.752;2023-02-16T00:56:27;102425.06;;;7.15;67.49
46534;BME280;32260;52.008;4.752;2023-02-16T00:58:53;102426.78;;;7.12;67.81
46534;BME280;32260;52.008;4.752;2023-02-16T01:01:28;102432.16;;;7.17;67.37
46534;BME280;32260;52.008;4.752;2023-02-16T01:03:57;102429.41;;;7.11;68.18
46534;BME280;32260;52.008;4.752;2023-02-16T01:06:25;102426.75;;;7.09;67.75
46534;BME280;32260;52.008;4.752;2023-02-16T01:09:14;102423.28;;;7.13;67.60
46534;BME280;32260;52.008;4.752;2023-02-16T01:12:03;102418.03;;;7.13;67.76
46534;BME280;32260;52.008;4.752;2023-02-16T01:14:31;102408.44;;;7.17;67.80
46534;BME280;32260;52.008;4.752;2023-02-16T01:16:58;102416.34;;;7.19;67.98
46534;BME280;32260;52.008;4.752;2023-02-16T01:19:24;102414.63;;;7.19;68.30
46534;BME280;32260;52.008;4.752;2023-02-16T01:21:50;102428.72;;;7.21;68.18
46534;BME280;32260;52.008;4.752;2023-02-16T01:24:16;102422.69;;;7.27;67.87
46534;BME280;32260;52.008;4.752;2023-02-16T01:26:48;102412.28;;;7.35;67.80
46534;BME280;32260;52.008;4.752;2023-02-16T01:29:19;102411.41;;;7.34;67.77
46534;BME280;32260;52.008;4.752;2023-02-16T01:31:46;102407.09;;;7.39;67.54
46534;BME280;32260;52.008;4.752;2023-02-16T01:34:13;102406.25;;;7.40;67.41
46534;BME280;32260;52.008;4.752;2023-02-16T01:36:42;102404.56;;;7.45;67.21
46534;BME280;32260;52.008;4.752;2023-02-16T01:39:12;102402.81;;;7.48;67.73
46534;BME280;32260;52.008;4.752;2023-02-16T01:42:06;102408.16;;;7.49;67.39
46534;BME280;32260;52.008;4.752;2023-02-16T01:44:39;102397.41;;;7.38;68.00
46534;BME280;32260;52.008;4.752;2023-02-16T01:47:29;102403.78;;;7.51;67.72
46534;BME280;32260;52.008;4.752;2023-02-16T01:49:57;102410.75;;;7.48;67.66
46534;BME280;32260;52.008;4.752;2023-02-16T01:52:30;102404.69;;;7.52;67.60
46534;BME280;32260;52.008;4.752;2023-02-16T01:55:04;102402.94;;;7.54;67.34
46534;BME280;32260;52.008;4.752;2023-02-16T02:02:51;102399.50;;;7.58;67.78
46534;BME280;32260;52.008;4.752;2023-02-16T02:08:02;102404.91;;;7.64;66.90
46534;BME280;32260;52.008;4.752;2023-02-16T02:10:44;102397.03;;;7.69;67.39
46534;BME280;32260;52.008;4.752;2023-02-16T02:13:27;102396.22;;;7.71;67.02
46534;BME280;32260;52.008;4.752;2023-02-16T02:15:56;102395.31;;;7.69;67.18
46534;BME280;32260;52.008;4.752;2023-02-16T02:18:23;102390.06;;;7.72;67.17
46534;BME280;32260;52.008;4.752;2023-02-16T02:21:14;102384.00;;;7.78;67.11
46534;BME280;32260;52.008;4.752;2023-02-16T02:30:02;102377.97;;;7.85;66.93
46534;BME280;32260;52.008;4.752;2023-02-16T02:32:46;102376.09;;;7.78;66.45
46534;BME280;32260;52.008;4.752;2023-02-16T02:38:31;102366.59;;;7.89;66.11
46534;BME280;32260;52.008;4.752;2023-02-16T02:41:22;102363.97;;;7.91;66.31
46534;BME280;32260;52.008;4.752;2023-02-16T02:44:11;102362.16;;;7.87;66.61
46534;BME280;32260;52.008;4.752;2023-02-16T02:46:39;102350.78;;;7.91;65.71
46534;BME280;32260;52.008;4.752;2023-02-16T02:49:05;102344.72;;;7.95;65.54
46534;BME280;32260;52.008;4.752;2023-02-16T02:51:31;102343.72;;;7.90;66.33
46534;BME280;32260;52.008;4.752;2023-02-16T02:54:24;102345.59;;;7.97;65.94
46534;BME280;32260;52.008;4.752;2023-02-16T02:57:18;102341.31;;;8.04;65.90
46534;BME280;32260;52.008;4.752;2023-02-16T03:00:12;102339.44;;;7.97;65.61
46534;BME280;32260;52.008;4.752;2023-02-16T03:03:23;102340.38;;;8.00;65.50
46534;BME280;32260;52.008;4.752;2023-02-16T03:05:58;102332.47;;;8.02;65.66
46534;BME280;32260;52.008;4.752;2023-02-16T03:08:28;102334.28;;;8.04;65.54
46534;BME280;32260;52.008;4.752;2023-02-16T03:11:00;102330.75;;;8.04;65.52
46534;BME280;32260;52.008;4.752;2023-02-16T03:13:52;102319.38;;;8.08;65.58
46534;BME280;32260;52.008;4.752;2023-02-16T03:16:25;102328.16;;;8.08;65.33
46534;BME280;32260;52.008;4.752;2023-02-16T03:18:52;102329.91;;;8.06;65.71
46534;BME280;32260;52.008;4.752;2023-02-16T03:21:40;102331.81;;;8.17;64.82
46534;BME280;32260;52.008;4.752;2023-02-16T03:24:28;102323.97;;;8.21;65.11
46534;BME280;32260;52.008;4.752;2023-02-16T03:27:19;102332.75;;;8.23;65.26
46534;BME280;32260;52.008;4.752;2023-02-16T03:30:07;102327.56;;;8.28;64.58
46534;BME280;32260;52.008;4.752;2023-02-16T03:32:35;102338.13;;;8.30;64.80
46534;BME280;32260;52.008;4.752;2023-02-16T03:35:01;102340.84;;;8.33;64.68
46534;BME280;32260;52.008;4.752;2023-02-16T03:37:28;102340.81;;;8.31;64.65
46534;BME280;32260;52.008;4.752;2023-02-16T03:39:54;102342.63;;;8.35;65.17
46534;BME280;32260;52.008;4.752;2023-02-16T03:42:46;102346.19;;;8.37;64.95
46534;BME280;32260;52.008;4.752;2023-02-16T03:45:13;102333.84;;;8.38;64.67
46534;BME280;32260;52.008;4.752;2023-02-16T03:47:39;102330.34;;;8.37;65.06
46534;BME280;32260;52.008;4.752;2023-02-16T03:50:06;102336.50;;;8.39;64.61
46534;BME280;32260;52.008;4.752;2023-02-16T03:52:32;102332.16;;;8.41;64.46
46534;BME280;32260;52.008;4.752;2023-02-16T03:54:58;102332.16;;;8.45;64.61
46534;BME280;32260;52.008;4.752;2023-02-16T03:57:25;102326.13;;;8.49;64.58
46534;BME280;32260;52.008;4.752;2023-02-16T03:59:51;102326.13;;;8.50;64.27
46534;BME280;32260;52.008;4.752;2023-02-16T04:02:19;102322.63;;;8.51;64.17
46534;BME280;32260;52.008;4.752;2023-02-16T04:04:45;102328.78;;;8.52;64.02
46534;BME280;32260;52.008;4.752;2023-02-16T04:07:12;102320.84;;;8.53;64.01
46534;BME280;32260;52.008;4.752;2023-02-16T04:09:38;102327.91;;;8.54;64.43
46534;BME280;32260;52.008;4.752;2023-02-16T04:12:04;102327.91;;;8.53;64.29
46534;BME280;32260;52.008;4.752;2023-02-16T04:14:50;102330.56;;;8.54;64.60
46534;BME280;32260;52.008;4.752;2023-02-16T04:17:16;102326.19;;;8.56;64.63
46534;BME280;32260;52.008;4.752;2023-02-16T04:19:42;102342.03;;;8.56;64.45
46534;BME280;32260;52.008;4.752;2023-02-16T04:22:08;102345.59;;;8.58;64.24
46534;BME280;32260;52.008;4.752;2023-02-16T04:24:34;102343.00;;;8.62;64.28
46534;BME280;32260;52.008;4.752;2023-02-16T04:27:01;102350.03;;;8.61;64.30
46534;BME280;32260;52.008;4.752;2023-02-16T04:29:27;102349.16;;;8.62;64.18
46534;BME280;32260;52.008;4.752;2023-02-16T04:31:54;102343.00;;;8.63;64.33
46534;BME280;32260;52.008;4.752;2023-02-16T04:34:20;102336.84;;;8.63;64.64
46534;BME280;32260;52.008;4.752;2023-02-16T04:36:46;102337.72;;;8.63;64.37
46534;BME280;32260;52.008;4.752;2023-02-16T04:39:12;102337.78;;;8.66;64.77
46534;BME280;32260;52.008;4.752;2023-02-16T04:41:38;102336.91;;;8.67;64.50
46534;BME280;32260;52.008;4.752;2023-02-16T04:44:05;102332.44;;;8.63;64.74
46534;BME280;32260;52.008;4.752;2023-02-16T04:46:31;102327.19;;;8.66;64.98
46534;BME280;32260;52.008;4.752;2023-02-16T04:48:57;102333.34;;;8.65;64.63
46534;BME280;32260;52.008;4.752;2023-02-16T04:51:23;102330.72;;;8.68;64.39
46534;BME280;32260;52.008;4.752;2023-02-16T04:53:49;102314.00;;;8.69;64.68
46534;BME280;32260;52.008;4.752;2023-02-16T04:56:16;102327.22;;;8.71;64.40
46534;BME280;32260;52.008;4.752;2023-02-16T04:58:42;102320.22;;;8.71;64.71
46534;BME280;32260;52.008;4.752;2023-02-16T05:01:16;102313.13;;;8.70;64.70
46534;BME280;32260;52.008;4.752;2023-02-16T05:03:42;102325.44;;;8.68;64.90
46534;BME280;32260;52.008;4.752;2023-02-16T05:06:08;102304.31;;;8.68;64.37
46534;BME280;32260;52.008;4.752;2023-02-16T05:08:34;102320.19;;;8.70;64.62
46534;BME280;32260;52.008;4.752;2023-02-16T05:11:00;102308.78;;;8.72;64.99
46534;BME280;32260;52.008;4.752;2023-02-16T05:13:46;102318.47;;;8.73;64.65
46534;BME280;32260;52.008;4.752;2023-02-16T05:16:32;102304.38;;;8.73;64.76
46534;BME280;32260;52.008;4.752;2023-02-16T05:18:58;102298.22;;;8.72;65.18
46534;BME280;32260;52.008;4.752;2023-02-16T05:21:24;102308.78;;;8.72;64.66
46534;BME280;32260;52.008;4.752;2023-02-16T05:23:59;102313.13;;;8.70;65.34
46534;BME280;32260;52.008;4.752;2023-02-16T05:26:26;102308.72;;;8.69;65.22
46534;BME280;32260;52.008;4.752;2023-02-16T05:28:52;102299.91;;;8.69;65.35
46534;BME280;32260;52.008;4.752;2023-02-16T05:31:19;102301.66;;;8.68;65.40
46534;BME280;32260;52.008;4.752;2023-02-16T05:33:45;102298.16;;;8.69;64.94
46534;BME280;32260;52.008;4.752;2023-02-16T05:36:11;102298.13;;;8.66;64.99
46534;BME280;32260;52.008;4.752;2023-02-16T05:38:37;102299.00;;;8.68;65.11
46534;BME280;32260;52.008;4.752;2023-02-16T05:41:03;102301.69;;;8.70;65.45
46534;BME280;32260;52.008;4.752;2023-02-16T05:43:29;102307.84;;;8.67;64.96
46534;BME280;32260;52.008;4.752;2023-02-16T05:45:56;102300.78;;;8.69;64.99
46534;BME280;32260;52.008;4.752;2023-02-16T05:48:22;102300.78;;;8.69;65.33
46534;BME280;32260;52.008;4.752;2023-02-16T05:50:48;102301.69;;;8.70;65.17
46534;BME280;32260;52.008;4.752;2023-02-16T05:53:14;102310.56;;;8.75;65.66
46534;BME280;32260;52.008;4.752;2023-02-16T05:55:40;102315.00;;;8.78;65.26
46534;BME280;32260;52.008;4.752;2023-02-16T05:58:06;102311.44;;;8.76;65.31
46534;BME280;32260;52.008;4.752;2023-02-16T06:00:32;102315.00;;;8.81;64.81
46534;BME280;32260;52.008;4.752;2023-02-16T06:02:59;102306.28;;;8.85;65.08
46534;BME280;32260;52.008;4.752;2023-02-16T06:05:25;102308.00;;;8.86;64.84
46534;BME280;32260;52.008;4.752;2023-02-16T06:07:51;102310.69;;;8.87;65.49
46534;BME280;32260;52.008;4.752;2023-02-16T06:10:17;102293.06;;;8.88;65.05
46534;BME280;32260;52.008;4.752;2023-02-16T06:12:44;102295.72;;;8.88;65.44
46534;BME280;32260;52.008;4.752;2023-02-16T06:15:10;102304.56;;;8.93;65.20
46534;BME280;32260;52.008;4.752;2023-02-16T06:17:36;102308.94;;;8.89;64.80
46534;BME280;32260;52.008;4.752;2023-02-16T06:20:03;102304.56;;;8.92;64.92
46534;BME280;32260;52.008;4.752;2023-02-16T06:22:30;102311.63;;;8.94;65.07
46534;BME280;32260;52.008;4.752;2023-02-16T06:24:56;102304.63;;;8.96;64.82
46534;BME280;32260;52.008;4.752;2023-02-16T06:27:22;102296.69;;;8.98;64.93
46534;BME280;32260;52.008;4.752;2023-02-16T06:29:48;102308.16;;;8.98;65.15
46534;BME280;32260;52.008;4.752;2023-02-16T06:32:14;102307.28;;;9.01;65.10
46534;BME280;32260;52.008;4.752;2023-02-16T06:34:40;102306.47;;;9.03;64.62
46534;BME280;32260;52.008;4.752;2023-02-16T06:37:06;102302.06;;;9.05;65.05
46534;BME280;32260;52.008;4.752;2023-02-16T06:39:32;102310.03;;;9.09;64.71
46534;BME280;32260;52.008;4.752;2023-02-16T06:41:58;102304.69;;;9.07;65.14
46534;BME280;32260;52.008;4.752;2023-02-16T06:44:24;102310.03;;;9.12;64.52
46534;BME280;32260;52.008;4.752;2023-02-16T06:46:50;102308.28;;;9.11;64.71
46534;BME280;32260;52.008;4.752;2023-02-16T06:49:18;102314.41;;;9.10;64.59
46534;BME280;32260;52.008;4.752;2023-02-16T06:51:46;102324.13;;;9.11;65.12
46534;BME280;32260;52.008;4.752;2023-02-16T06:54:12;102322.41;;;9.14;64.46
46534;BME280;32260;52.008;4.752;2023-02-16T06:56:38;102326.84;;;9.17;64.88
46534;BME280;32260;52.008;4.752;2023-02-16T06:59:05;102331.25;;;9.18;64.42
46534;BME280;32260;52.008;4.752;2023-02-16T07:01:31;102332.13;;;9.17;64.79
46534;BME280;32260;52.008;4.752;2023-02-16T07:03:57;102333.03;;;9.19;64.98
46534;BME280;32260;52.008;4.752;2023-02-16T07:06:25;102334.81;;;9.20;64.93
46534;BME280;32260;52.008;4.752;2023-02-16T07:08:52;102341.84;;;9.18;64.75
46534;BME280;32260;52.008;4.752;2023-02-16T07:11:19;102345.38;;;9.18;65.00
46534;BME280;32260;52.008;4.752;2023-02-16T07:13:45;102333.03;;;9.17;64.86
46534;BME280;32260;52.008;4.752;2023-02-16T07:16:12;102342.75;;;9.21;65.26
46534;BME280;32260;52.008;4.752;2023-02-16T07:18:39;102344.53;;;9.21;65.04
46534;BME280;32260;52.008;4.752;2023-02-16T07:21:05;102341.91;;;9.24;64.72
46534;BME280;32260;52.008;4.752;2023-02-16T07:23:32;102348.97;;;9.25;64.72
46534;BME280;32260;52.008;4.752;2023-02-16T07:25:58;102343.69;;;9.25;64.71
46534;BME280;32260;52.008;4.752;2023-02-16T07:28:25;102337.53;;;9.31;64.44
46534;BME280;32260;52.008;4.752;2023-02-16T07:30:51;102332.25;;;9.31;64.44
46534;BME280;32260;52.008;4.752;2023-02-16T07:33:17;102340.22;;;9.34;64.96
46534;BME280;32260;52.008;4.752;2023-02-16T07:35:44;102349.94;;;9.35;65.02
46534;BME280;32260;52.008;4.752;2023-02-16T07:38:10;102346.44;;;9.37;65.07
46534;BME280;32260;52.008;4.752;2023-02-16T07:40:36;102342.06;;;9.39;64.69
46534;BME280;32260;52.008;4.752;2023-02-16T07:43:04;102352.66;;;9.39;64.95
46534;BME280;32260;52.008;4.752;2023-02-16T07:45:30;102361.47;;;9.42;65.14
46534;BME280;32260;52.008;4.752;2023-02-16T07:47:59;102361.50;;;9.45;65.00
46534;BME280;32260;52.008;4.752;2023-02-16T07:50:25;102360.63;;;9.47;64.86
46534;BME280;32260;52.008;4.752;2023-02-16T07:52:51;102362.41;;;9.48;64.66
46534;BME280;32260;52.008;4.752;2023-02-16T07:55:17;102358.88;;;9.48;64.70
46534;BME280;32260;52.008;4.752;2023-02-16T07:57:43;102369.44;;;9.48;64.64
46534;BME280;32260;52.008;4.752;2023-02-16T08:00:10;102370.38;;;9.53;64.94
46534;BME280;32260;52.008;4.752;2023-02-16T08:02:36;102371.28;;;9.53;65.00
46534;BME280;32260;52.008;4.752;2023-02-16T08:05:02;102379.19;;;9.52;65.01
46534;BME280;32260;52.008;4.752;2023-02-16T08:07:28;102376.56;;;9.53;64.72
46534;BME280;32260;52.008;4.752;2023-02-16T08:09:54;102381.88;;;9.53;64.60
46534;BME280;32260;52.008;4.752;2023-02-16T08:12:21;102381.88;;;9.57;64.58
46534;BME280;32260;52.008;4.752;2023-02-16T08:14:47;102372.16;;;9.55;64.85
46534;BME280;32260;52.008;4.752;2023-02-16T08:17:14;102376.59;;;9.58;64.53
46534;BME280;32260;52.008;4.752;2023-02-16T08:19:41;102374.84;;;9.60;64.67
46534;BME280;32260;52.008;4.752;2023-02-16T08:22:08;102380.16;;;9.60;64.65
46534;BME280;32260;52.008;4.752;2023-02-16T08:24:34;102385.44;;;9.60;64.54
46534;BME280;32260;52.008;4.752;2023-02-16T08:27:02;102385.44;;;9.57;65.06
46534;BME280;32260;52.008;4.752;2023-02-16T08:29:30;102388.94;;;9.56;65.09
46534;BME280;32260;52.008;4.752;2023-02-16T08:31:57;102390.69;;;9.54;65.17
46534;BME280;32260;52.008;4.752;2023-02-16T08:34:23;102393.25;;;9.48;65.96
46534;BME280;32260;52.008;4.752;2023-02-16T08:36:56;102386.25;;;9.51;65.38
46534;BME280;32260;52.008;4.752;2023-02-16T08:39:26;102394.13;;;9.47;65.72
46534;BME280;32260;52.008;4.752;2023-02-16T08:41:53;102397.63;;;9.44;65.92
46534;BME280;32260;52.008;4.752;2023-02-16T08:44:20;102391.44;;;9.41;65.68
46534;BME280;32260;52.008;4.752;2023-02-16T08:46:49;102398.47;;;9.38;65.81
46534;BME280;32260;52.008;4.752;2023-02-16T08:49:17;102396.66;;;9.34;66.35
46534;BME280;32260;52.008;4.752;2023-02-16T08:51:47;102400.13;;;9.27;67.15
46534;BME280;32260;52.008;4.752;2023-02-16T08:54:16;102379.84;;;9.26;66.68
46534;BME280;32260;52.008;4.752;2023-02-16T08:56:44;102386.00;;;9.25;67.88
46534;BME280;32260;52.008;4.752;2023-02-16T08:59:14;102393.00;;;9.23;68.32
46534;BME280;32260;52.008;4.752;2023-02-16T09:01:40;102393.00;;;9.23;68.20
46534;BME280;32260;52.008;4.752;2023-02-16T09:04:12;102392.19;;;9.27;68.44
46534;BME280;32260;52.008;4.752;2023-02-16T09:06:43;102397.44;;;9.26;68.07
46534;BME280;32260;52.008;4.752;2023-02-16T09:09:27;102393.91;;;9.23;69.11
46534;BME280;32260;52.008;4.752;2023-02-16T09:12:01;102387.78;;;9.31;69.13
46534;BME280;32260;52.008;4.752;2023-02-16T09:14:27;102393.06;;;9.26;70.62
46534;BME280;32260;52.008;4.752;2023-02-16T09:17:16;102379.91;;;9.32;69.67
46534;BME280;32260;52.008;4.752;2023-02-16T09:20:00;102386.06;;;9.33;70.21
46534;BME280;32260;52.008;4.752;2023-02-16T09:23:18;102390.50;;;9.35;70.43
46534;BME280;32260;52.008;4.752;2023-02-16T09:28:52;102393.22;;;9.43;69.21
46534;BME280;32260;52.008;4.752;2023-02-16T09:32:36;102396.75;;;9.44;70.21
46534;BME280;32260;52.008;4.752;2023-02-16T09:44:34;102390.69;;;9.54;70.80
46534;BME280;32260;52.008;4.752;2023-02-16T09:51:26;102379.34;;;9.67;71.77
46534;BME280;32260;52.008;4.752;2023-02-16T09:57:50;102369.84;;;9.97;70.92
46534;BME280;32260;52.008;4.752;2023-02-16T10:00:43;102376.94;;;10.03;71.30
46534;BME280;32260;52.008;4.752;2023-02-16T10:03:27;102384.09;;;10.13;71.22
46534;BME280;32260;52.008;4.752;2023-02-16T10:08:44;102377.06;;;10.18;71.08
46534;BME280;32260;52.008;4.752;2023-02-16T10:11:26;102379.75;;;10.23;71.22
46534;BME280;32260;52.008;4.752;2023-02-16T10:14:27;102378.06;;;10.38;70.80
46534;BME280;32260;52.008;4.752;2023-02-16T10:18:15;102372.81;;;10.41;70.69
46534;BME280;32260;52.008;4.752;2023-02-16T10:20:33;102374.56;;;10.42;70.86
46534;BME280;32260;52.008;4.752;2023-02-16T10:25:47;102370.22;;;10.56;70.82
46534;BME280;32260;52.008;4.752;2023-02-16T10:28:20;102368.50;;;10.69;70.85
46534;BME280;32260;52.008;4.752;2023-02-16T10:31:23;102369.38;;;10.66;70.50
46534;BME280;32260;52.008;4.752;2023-02-16T10:33:43;102363.19;;;10.69;70.53
46534;BME280;32260;52.008;4.752;2023-02-16T10:37:13;102364.13;;;10.79;70.31
46534;BME280;32260;52.008;4.752;2023-02-16T10:39:11;102359.72;;;10.82;70.22
46534;BME280;32260;52.008;4.752;2023-02-16T10:41:44;102365.91;;;10.86;70.13
46534;BME280;32260;52.008;4.752;2023-02-16T10:44:19;102369.50;;;10.94;70.55
46534;BME280;32260;52.008;4.752;2023-02-16T10:46:56;102362.38;;;10.90;70.31
46534;BME280;32260;52.008;4.752;2023-02-16T10:49:24;102354.44;;;10.86;70.06
46534;BME280;32260;52.008;4.752;2023-02-16T10:51:53;102351.78;;;10.90;70.09
46534;BME280;32260;52.008;4.752;2023-02-16T10:54:27;102354.47;;;10.98;69.70
46534;BME280;32260;52.008;4.752;2023-02-16T10:59:37;102359.78;;;11.06;69.89
46534;BME280;32260;52.008;4.752;2023-02-16T11:02:18;102358.91;;;11.07;69.84
46534;BME280;32260;52.008;4.752;2023-02-16T11:04:47;102361.56;;;11.11;70.17
46534;BME280;32260;52.008;4.752;2023-02-16T11:07:17;102358.03;;;11.20;70.11
46534;BME280;32260;52.008;4.752;2023-02-16T11:09:47;102361.63;;;11.41;69.83
46534;BME280;32260;52.008;4.752;2023-02-16T11:12:31;102360.72;;;11.39;69.97
46534;BME280;32260;52.008;4.752;2023-02-16T11:18:05;102346.56;;;11.52;69.66
46534;BME280;32260;52.008;4.752;2023-02-16T11:20:51;102335.97;;;11.61;70.20
46534;BME280;32260;52.008;4.752;2023-02-16T11:23:36;102337.72;;;11.82;70.03
46534;BME280;32260;52.008;4.752;2023-02-16T11:28:43;102332.41;;;12.09;69.45
46534;BME280;32260;52.008;4.752;2023-02-16T11:36:36;102318.16;;;12.25;68.28
46534;BME280;32260;52.008;4.752;2023-02-16T11:41:59;102330.56;;;12.33;67.85
46534;BME280;32260;52.008;4.752;2023-02-16T11:44:50;102325.16;;;12.50;67.58
46534;BME280;32260;52.008;4.752;2023-02-16T11:47:38;102328.72;;;12.47;66.49
46534;BME280;32260;52.008;4.752;2023-02-16T11:50:25;102316.28;;;12.52;67.55
46534;BME280;32260;52.008;4.752;2023-02-16T11:52:56;102316.34;;;12.43;66.75
46534;BME280;32260;52.008;4.752;2023-02-16T11:55:27;102306.59;;;12.45;67.19
46534;BME280;32260;52.008;4.752;2023-02-16T11:57:53;102304.81;;;12.45;66.71
46534;BME280;32260;52.008;4.752;2023-02-16T12:00:23;102303.03;;;12.48;66.65
46534;BME280;32260;52.008;4.752;2023-02-16T12:03:14;102293.22;;;12.60;66.88
46534;BME280;32260;52.008;4.752;2023-02-16T12:06:05;102291.44;;;12.62;66.68
46534;BME280;32260;52.008;4.752;2023-02-16T12:08:59;102283.41;;;12.70;66.31
46534;BME280;32260;52.008;4.752;2023-02-16T12:19:47;102261.03;;;13.01;66.53
46534;BME280;32260;52.008;4.752;2023-02-16T12:22:39;102259.09;;;13.26;66.20
46534;BME280;32260;52.008;4.752;2023-02-16T12:27:49;102249.16;;;13.45;64.68
46534;BME280;32260;52.008;4.752;2023-02-16T12:36:03;102230.91;;;13.94;64.10
46534;BME280;32260;52.008;4.752;2023-02-16T12:38:55;102230.75;;;14.06;63.55
46534;BME280;32260;52.008;4.752;2023-02-16T12:41:42;102229.88;;;14.07;62.94
46534;BME280;32260;52.008;4.752;2023-02-16T12:44:33;102234.34;;;14.03;62.13
46534;BME280;32260;52.008;4.752;2023-02-16T12:47:04;102240.69;;;13.91;60.95
46534;BME280;32260;52.008;4.752;2023-02-16T12:49:50;102235.28;;;13.98;61.66
46534;BME280;32260;52.008;4.752;2023-02-16T13:14:24;102202.44;;;13.97;60.28
46534;BME280;32260;52.008;4.752;2023-02-16T13:16:57;102190.88;;;14.00;60.77
46534;BME280;32260;52.008;4.752;2023-02-16T13:19:25;102186.47;;;13.96;60.16
46534;BME280;32260;52.008;4.752;2023-02-16T13:31:33;102162.44;;;13.99;59.84
46534;BME280;32260;52.008;4.752;2023-02-16T13:33:41;102164.25;;;13.97;59.36
46534;BME280;32260;52.008;4.752;2023-02-16T13:36:16;102183.81;;;13.96;58.73
46534;BME280;32260;52.008;4.752;2023-02-16T13:39:15;102160.75;;;13.91;59.51
46534;BME280;32260;52.008;4.752;2023-02-16T13:47:15;102155.78;;;13.64;59.38
46534;BME280;32260;52.008;4.752;2023-02-16T13:49:43;102154.09;;;13.56;58.43
46534;BME280;32260;52.008;4.752;2023-02-16T13:52:41;102152.28;;;13.57;58.51
46534;BME280;32260;52.008;4.752;2023-02-16T13:55:24;102155.03;;;13.49;58.50
46534;BME280;32260;52.008;4.752;2023-02-16T14:05:54;102130.31;;;13.36;59.08
46534;BME280;32260;52.008;4.752;2023-02-16T14:11:03;102136.53;;;13.40;59.56
46534;BME280;32260;52.008;4.752;2023-02-16T14:16:10;102125.03;;;13.32;60.31
46534;BME280;32260;52.008;4.752;2023-02-16T14:21:42;102118.72;;;13.45;60.39
46534;BME280;32260;52.008;4.752;2023-02-16T14:24:31;102120.53;;;13.37;60.87
46534;BME280;32260;52.008;4.752;2023-02-16T14:27:03;102103.69;;;13.38;60.95
46534;BME280;32260;52.008;4.752;2023-02-16T14:29:34;102115.25;;;13.34;60.91
46534;BME280;32260;52.008;4.752;2023-02-16T14:35:03;102114.34;;;13.36;61.34
46534;BME280;32260;52.008;4.752;2023-02-16T14:37:43;102125.16;;;13.21;61.96
46534;BME280;32260;52.008;4.752;2023-02-16T14:40:14;102111.91;;;13.13;62.17
46534;BME280;32260;52.008;4.752;2023-02-16T14:42:49;102124.38;;;13.11;62.22
46534;BME280;32260;52.008;4.752;2023-02-16T14:48:27;102119.19;;;12.99;63.06
46534;BME280;32260;52.008;4.752;2023-02-16T14:59:29;102131.03;;;12.60;66.56
46534;BME280;32260;52.008;4.752;2023-02-16T15:01:57;102135.53;;;12.51;66.54
46534;BME280;32260;52.008;4.752;2023-02-16T15:04:32;102142.66;;;12.44;66.86
46534;BME280;32260;52.008;4.752;2023-02-16T15:07:03;102137.41;;;12.38;67.60
46534;BME280;32260;52.008;4.752;2023-02-16T15:09:32;102119.72;;;12.29;68.03
46534;BME280;32260;52.008;4.752;2023-02-16T15:12:04;102117.97;;;12.26;68.32
46534;BME280;32260;52.008;4.752;2023-02-16T15:14:57;102116.16;;;12.32;68.80
46534;BME280;32260;52.008;4.752;2023-02-16T15:17:46;102113.53;;;12.30;70.28
46534;BME280;32260;52.008;4.752;2023-02-16T15:23:14;102115.38;;;12.17;69.96
46534;BME280;32260;52.008;4.752;2023-02-16T15:26:04;102119.78;;;12.23;70.15
46534;BME280;32260;52.008;4.752;2023-02-16T15:28:42;102114.47;;;12.18;69.75
46534;BME280;32260;52.008;4.752;2023-02-16T15:31:24;102112.75;;;12.11;70.91
46534;BME280;32260;52.008;4.752;2023-02-16T15:34:00;102112.75;;;12.14;71.13
46534;BME280;32260;52.008;4.752;2023-02-16T15:36:33;102112.75;;;12.14;71.43
46534;BME280;32260;52.008;4.752;2023-02-16T15:39:03;102116.31;;;12.08;70.49
46534;BME280;32260;52.008;4.752;2023-02-16T15:44:28;102111.06;;;11.96;70.86
46534;BME280;32260;52.008;4.752;2023-02-16T15:47:21;102120.78;;;11.98;70.46
46534;BME280;32260;52.008;4.752;2023-02-16T15:49:48;102112.84;;;11.91;70.46
46534;BME280;32260;52.008;4.752;2023-02-16T15:52:32;102111.06;;;11.90;70.92
46534;BME280;32260;52.008;4.752;2023-02-16T15:55:00;102121.69;;;11.91;70.86
46534;BME280;32260;52.008;4.752;2023-02-16T15:57:37;102113.69;;;11.94;70.17